createdAt,value
2019-03-29T00:01:09.404Z,10.01
2019-03-29T00:03:37.919Z,10.00
2019-03-29T00:06:06.388Z,9.99
2019-03-29T00:08:35.971Z,9.98
2019-03-29T00:11:04.544Z,9.95
2019-03-29T00:13:32.999Z,9.97
2019-03-29T00:16:01.470Z,9.95
2019-03-29T00:18:29.969Z,9.95
2019-03-29T00:20:58.430Z,9.96
2019-03-29T00:23:26.893Z,9.92
2019-03-29T00:25:55.415Z,9.94
2019-03-29T00:28:23.889Z,9.94
2019-03-29T00:30:52.328Z,9.92
2019-03-29T00:33:20.858Z,9.90
2019-03-29T00:35:49.600Z,9.83
2019-03-29T00:38:18.131Z,9.78
2019-03-29T00:40:46.637Z,9.71
2019-03-29T00:43:15.105Z,9.66
2019-03-29T00:45:43.551Z,9.60
2019-03-29T00:48:12.038Z,9.55
2019-03-29T00:50:40.494Z,9.49
2019-03-29T00:53:09.182Z,9.46
2019-03-29T00:55:37.913Z,9.43
2019-03-29T00:58:06.367Z,9.40
2019-03-29T01:00:34.839Z,9.38
2019-03-29T01:03:03.471Z,9.36
2019-03-29T01:05:31.929Z,9.34
2019-03-29T01:08:07.651Z,9.30
2019-03-29T01:10:30.631Z,9.27
2019-03-29T01:12:59.254Z,9.21
2019-03-29T01:15:27.718Z,9.18
2019-03-29T01:17:56.184Z,9.15
2019-03-29T01:20:24.639Z,9.13
2019-03-29T01:22:53.092Z,9.09
2019-03-29T01:25:21.585Z,9.06
2019-03-29T01:27:50.038Z,9.02
2019-03-29T01:30:18.571Z,9.00
2019-03-29T01:32:47.065Z,8.99
2019-03-29T01:35:15.529Z,8.97
2019-03-29T01:37:44.288Z,8.98
2019-03-29T01:40:13.018Z,9.00
2019-03-29T01:42:41.493Z,9.02
2019-03-29T01:45:10.822Z,9.05
2019-03-29T01:47:39.329Z,9.09
2019-03-29T01:50:08.156Z,9.13
2019-03-29T01:52:37.086Z,9.15
2019-03-29T01:55:06.819Z,9.17
2019-03-29T01:57:35.364Z,9.19
2019-03-29T02:00:03.958Z,9.20
2019-03-29T02:02:32.445Z,9.24
2019-03-29T02:05:01.191Z,9.26
2019-03-29T02:07:30.074Z,9.26
2019-03-29T02:09:58.597Z,9.30
2019-03-29T02:12:27.065Z,9.33
2019-03-29T02:14:55.601Z,9.34
2019-03-29T02:17:24.107Z,9.36
2019-03-29T02:19:52.564Z,9.36
2019-03-29T02:22:21.028Z,9.38
2019-03-29T02:24:50.045Z,9.42
2019-03-29T02:27:18.675Z,9.43
2019-03-29T02:29:47.138Z,9.46
2019-03-29T02:32:15.622Z,9.49
2019-03-29T02:34:44.241Z,9.52
2019-03-29T02:37:12.719Z,9.56
2019-03-29T02:39:41.383Z,9.58
2019-03-29T02:42:09.856Z,9.59
2019-03-29T02:44:38.319Z,9.61
2019-03-29T02:49:40.730Z,9.62
2019-03-29T02:52:09.188Z,9.61
2019-03-29T02:54:37.690Z,9.61
2019-03-29T02:57:06.166Z,9.64
2019-03-29T02:59:34.625Z,9.61
2019-03-29T03:02:03.229Z,9.60
2019-03-29T03:04:31.708Z,9.60
2019-03-29T03:07:00.180Z,9.59
2019-03-29T03:09:28.674Z,9.60
2019-03-29T03:11:57.152Z,9.62
2019-03-29T03:14:25.658Z,9.61
2019-03-29T03:16:54.140Z,9.59
2019-03-29T03:19:22.603Z,9.57
2019-03-29T03:21:51.088Z,9.58
2019-03-29T03:24:19.606Z,9.59
2019-03-29T03:26:48.085Z,9.57
2019-03-29T03:29:16.643Z,9.56
2019-03-29T03:31:45.197Z,9.54
2019-03-29T03:34:13.709Z,9.51
2019-03-29T03:36:42.261Z,9.49
2019-03-29T03:39:10.762Z,9.48
2019-03-29T03:41:39.559Z,9.48
2019-03-29T03:44:08.019Z,9.49
2019-03-29T03:46:36.528Z,9.51
2019-03-29T03:49:05.052Z,9.53
2019-03-29T03:51:33.661Z,9.55
2019-03-29T03:54:02.185Z,9.56
2019-03-29T03:56:31.716Z,9.56
2019-03-29T03:59:00.246Z,9.55
2019-03-29T04:01:28.746Z,9.54
2019-03-29T04:03:57.282Z,9.55
2019-03-29T04:06:25.769Z,9.54
2019-03-29T04:08:54.293Z,9.56
2019-03-29T04:11:22.742Z,9.57
2019-03-29T04:13:51.209Z,9.57
2019-03-29T04:16:19.707Z,9.59
2019-03-29T04:18:48.184Z,9.60
2019-03-29T04:21:16.654Z,9.60
2019-03-29T04:23:45.235Z,9.62
2019-03-29T04:26:13.705Z,9.63
2019-03-29T04:28:42.177Z,9.65
2019-03-29T04:31:10.680Z,9.66
2019-03-29T04:33:39.165Z,9.66
2019-03-29T04:36:07.676Z,9.68
2019-03-29T04:38:36.172Z,9.68
2019-03-29T04:41:04.810Z,9.68
2019-03-29T04:43:34.322Z,9.71
2019-03-29T04:46:02.809Z,9.71
2019-03-29T04:48:31.274Z,9.73
2019-03-29T04:50:59.738Z,9.74
2019-03-29T04:53:28.294Z,9.73
2019-03-29T04:55:56.765Z,9.74
2019-03-29T04:58:26.875Z,9.76
2019-03-29T05:00:55.399Z,9.78
2019-03-29T05:03:23.848Z,9.78
2019-03-29T05:05:52.330Z,9.79
2019-03-29T05:08:20.840Z,9.81
2019-03-29T05:10:49.290Z,9.83
2019-03-29T05:13:17.759Z,9.84
2019-03-29T05:15:46.251Z,9.87
2019-03-29T05:18:14.715Z,9.87
2019-03-29T05:20:43.178Z,9.87
2019-03-29T05:23:11.662Z,9.88
2019-03-29T05:25:40.140Z,9.87
2019-03-29T05:28:08.613Z,9.87
2019-03-29T05:30:37.114Z,9.88
2019-03-29T05:33:05.606Z,9.90
2019-03-29T05:35:34.039Z,9.91
2019-03-29T05:38:02.540Z,9.92
2019-03-29T05:40:35.284Z,9.94
2019-03-29T05:43:01.174Z,9.94
2019-03-29T05:45:29.729Z,9.95
2019-03-29T05:47:58.202Z,9.98
2019-03-29T05:50:26.679Z,10.00
2019-03-29T05:52:55.263Z,10.02
2019-03-29T05:55:32.570Z,10.05
2019-03-29T05:57:53.950Z,10.07
2019-03-29T06:00:22.529Z,10.09
2019-03-29T06:02:50.992Z,10.11
2019-03-29T06:05:19.462Z,10.14
2019-03-29T06:07:47.977Z,10.16
2019-03-29T06:10:16.433Z,10.19
2019-03-29T06:12:44.908Z,10.21
2019-03-29T06:15:13.475Z,10.23
2019-03-29T06:17:48.581Z,10.24
2019-03-29T06:20:12.485Z,10.26
2019-03-29T06:22:40.989Z,10.28
2019-03-29T06:25:09.556Z,10.30
2019-03-29T06:27:38.014Z,10.30
2019-03-29T06:30:08.052Z,10.32
2019-03-29T06:32:36.520Z,10.33
2019-03-29T06:35:07.426Z,10.33
2019-03-29T06:37:36.857Z,10.35
2019-03-29T06:40:08.493Z,10.38
2019-03-29T06:42:36.984Z,10.43
2019-03-29T06:45:06.772Z,10.46
2019-03-29T06:47:35.434Z,10.48
2019-03-29T06:50:05.741Z,10.53
2019-03-29T06:52:34.232Z,10.57
2019-03-29T06:55:02.699Z,10.60
2019-03-29T06:57:31.163Z,10.65
2019-03-29T06:59:59.699Z,10.68
2019-03-29T07:02:28.153Z,10.72
2019-03-29T07:04:56.643Z,10.76
2019-03-29T07:07:25.171Z,10.80
2019-03-29T07:09:53.633Z,10.81
2019-03-29T07:12:22.107Z,10.83
2019-03-29T07:14:50.590Z,10.84
2019-03-29T07:17:19.052Z,10.87
2019-03-29T07:19:47.672Z,10.89
2019-03-29T07:22:16.193Z,10.90
2019-03-29T07:24:44.651Z,10.94
2019-03-29T07:27:13.120Z,10.99
2019-03-29T07:29:41.618Z,11.03
2019-03-29T07:32:10.091Z,11.06
2019-03-29T07:34:38.556Z,11.08
2019-03-29T07:37:07.083Z,11.09
2019-03-29T07:39:35.539Z,11.12
2019-03-29T07:42:04.021Z,11.15
2019-03-29T07:44:32.591Z,11.20
2019-03-29T07:47:01.069Z,11.24
2019-03-29T07:49:30.547Z,11.30
2019-03-29T07:51:59.040Z,11.32
2019-03-29T07:54:27.504Z,11.37
2019-03-29T07:56:55.968Z,11.41
2019-03-29T07:59:24.472Z,11.44
2019-03-29T08:01:53.461Z,11.48
2019-03-29T08:04:23.834Z,11.50
2019-03-29T08:06:52.150Z,11.54
2019-03-29T08:09:22.592Z,11.57
2019-03-29T08:11:50.809Z,11.62
2019-03-29T08:14:19.333Z,11.64
2019-03-29T08:16:47.792Z,11.67
2019-03-29T08:19:16.257Z,11.70
2019-03-29T08:21:44.780Z,11.71
2019-03-29T08:24:13.261Z,11.74
2019-03-29T08:26:41.736Z,11.79
2019-03-29T08:29:10.227Z,11.84
2019-03-29T08:31:38.687Z,11.92
2019-03-29T08:34:07.170Z,11.98
2019-03-29T08:36:35.676Z,12.05
2019-03-29T08:39:06.632Z,12.12
2019-03-29T08:41:36.459Z,12.18
2019-03-29T08:44:04.966Z,12.24
2019-03-29T08:46:33.433Z,12.30
2019-03-29T08:49:01.919Z,12.38
2019-03-29T08:51:30.544Z,12.44
2019-03-29T08:53:59.012Z,12.51
2019-03-29T08:56:27.484Z,12.56
2019-03-29T08:58:56.003Z,12.62
2019-03-29T09:01:24.453Z,12.66
2019-03-29T09:04:04.700Z,12.70
2019-03-29T09:06:23.162Z,12.73
2019-03-29T09:08:51.706Z,12.77
2019-03-29T09:11:20.173Z,12.81
2019-03-29T09:13:48.669Z,12.85
2019-03-29T09:16:17.136Z,12.91
2019-03-29T09:18:45.602Z,12.98
2019-03-29T09:21:14.124Z,13.05
2019-03-29T09:23:42.585Z,13.12
2019-03-29T09:26:11.120Z,13.18
2019-03-29T09:28:39.921Z,13.26
2019-03-29T09:31:08.379Z,13.33
2019-03-29T09:33:36.846Z,13.40
2019-03-29T09:36:05.494Z,13.48
2019-03-29T09:38:33.994Z,13.54
2019-03-29T09:41:02.483Z,13.61
2019-03-29T09:43:32.746Z,13.66
2019-03-29T09:46:03.337Z,13.71
2019-03-29T09:48:34.427Z,13.75
2019-03-29T09:51:01.644Z,13.77
2019-03-29T09:53:30.385Z,13.83
2019-03-29T09:55:58.846Z,13.87
2019-03-29T09:58:27.348Z,13.90
2019-03-29T10:00:55.808Z,13.96
2019-03-29T10:03:24.286Z,14.01
2019-03-29T10:05:52.777Z,14.08
2019-03-29T10:08:21.246Z,14.15
2019-03-29T10:10:49.700Z,14.23
2019-03-29T10:13:18.192Z,14.29
2019-03-29T10:15:46.662Z,14.37
2019-03-29T10:18:15.131Z,14.44
2019-03-29T10:20:43.628Z,14.51
2019-03-29T10:23:12.095Z,14.54
2019-03-29T10:25:40.546Z,14.57
2019-03-29T10:28:09.063Z,14.58
2019-03-29T10:30:42.076Z,14.56
2019-03-29T10:33:10.547Z,14.54
2019-03-29T10:35:51.007Z,14.53
2019-03-29T10:38:09.298Z,14.49
2019-03-29T10:40:37.757Z,14.44
2019-03-29T10:43:06.391Z,14.38
2019-03-29T10:45:39.786Z,14.33
2019-03-29T10:48:05.217Z,14.28
2019-03-29T10:50:33.785Z,14.24
2019-03-29T10:53:02.258Z,14.19
2019-03-29T10:55:30.962Z,14.13
2019-03-29T10:57:59.444Z,14.06
2019-03-29T11:00:36.345Z,13.99
2019-03-29T11:03:05.292Z,13.93
2019-03-29T11:05:33.754Z,13.89
2019-03-29T11:08:02.297Z,13.88
2019-03-29T11:10:38.621Z,13.88
2019-03-29T11:13:13.079Z,13.90
2019-03-29T11:15:37.335Z,13.91
2019-03-29T11:18:06.204Z,13.93
2019-03-29T11:20:34.662Z,13.94
2019-03-29T11:23:03.127Z,13.97
2019-03-29T11:25:31.698Z,13.97
2019-03-29T11:28:00.172Z,13.96
2019-03-29T11:30:41.444Z,13.95
2019-03-29T11:32:58.858Z,13.95
2019-03-29T11:35:27.386Z,13.97
2019-03-29T11:37:55.840Z,13.97
2019-03-29T11:40:24.374Z,13.99
2019-03-29T11:42:52.919Z,14.03
2019-03-29T11:45:21.401Z,14.07
2019-03-29T11:47:49.905Z,14.12
2019-03-29T11:50:18.427Z,14.16
2019-03-29T11:52:46.887Z,14.19
2019-03-29T11:55:15.441Z,14.20
2019-03-29T11:57:44.008Z,14.20
2019-03-29T12:00:13.063Z,14.21
2019-03-29T12:02:41.583Z,14.23
2019-03-29T12:05:10.063Z,14.26
2019-03-29T12:07:50.959Z,14.30
2019-03-29T12:10:19.458Z,14.33
2019-03-29T12:12:47.909Z,14.36
2019-03-29T12:15:16.444Z,14.40
2019-03-29T12:17:44.956Z,14.46
2019-03-29T12:20:13.485Z,14.51
2019-03-29T12:22:41.938Z,14.54
2019-03-29T12:25:10.517Z,14.57
2019-03-29T12:27:38.973Z,14.59
2019-03-29T12:30:11.005Z,14.58
2019-03-29T12:32:39.491Z,14.56
2019-03-29T12:35:09.996Z,14.55
2019-03-29T12:37:38.231Z,14.52
2019-03-29T12:40:08.337Z,14.50
2019-03-29T12:42:36.792Z,14.50
2019-03-29T12:45:08.168Z,14.49
2019-03-29T12:47:36.649Z,14.48
2019-03-29T12:50:08.498Z,14.46
2019-03-29T12:52:37.013Z,14.45
2019-03-29T12:55:06.084Z,14.43
2019-03-29T12:57:34.586Z,14.42
2019-03-29T13:00:05.083Z,14.40
2019-03-29T13:02:34.630Z,14.38
2019-03-29T13:05:03.573Z,14.35
2019-03-29T13:07:32.143Z,14.31
2019-03-29T13:10:00.643Z,14.29
2019-03-29T13:12:29.113Z,14.29
2019-03-29T13:14:57.554Z,14.29
2019-03-29T13:17:28.455Z,14.27
2019-03-29T13:19:56.240Z,14.29
2019-03-29T13:22:24.844Z,14.32
2019-03-29T13:24:53.480Z,14.36
2019-03-29T13:27:22.017Z,14.39
2019-03-29T13:29:50.479Z,14.42
2019-03-29T13:32:19.000Z,14.47
2019-03-29T13:34:51.093Z,14.50
2019-03-29T13:37:17.711Z,14.52
2019-03-29T13:39:46.235Z,14.54
2019-03-29T13:42:14.696Z,14.55
2019-03-29T13:44:43.156Z,14.56
2019-03-29T13:47:11.652Z,14.59
2019-03-29T13:49:40.123Z,14.62
2019-03-29T13:52:08.590Z,14.66
2019-03-29T13:54:37.759Z,14.69
2019-03-29T13:57:06.220Z,14.70
2019-03-29T13:59:34.669Z,14.73
2019-03-29T14:02:03.502Z,14.76
2019-03-29T14:04:31.967Z,14.80
2019-03-29T14:07:08.205Z,14.82
2019-03-29T14:09:36.716Z,14.83
2019-03-29T14:12:05.220Z,14.85
2019-03-29T14:14:38.605Z,14.88
2019-03-29T14:17:03.889Z,14.91
2019-03-29T14:19:32.349Z,14.97
2019-03-29T14:22:00.815Z,15.00
2019-03-29T14:24:29.318Z,15.01
2019-03-29T14:26:57.941Z,15.02
2019-03-29T14:29:26.386Z,15.03
2019-03-29T14:31:54.928Z,15.04
2019-03-29T14:34:23.397Z,15.04
2019-03-29T14:36:51.855Z,15.03
2019-03-29T14:39:20.347Z,15.01
2019-03-29T14:41:48.795Z,15.00
2019-03-29T14:44:17.254Z,15.02
2019-03-29T14:46:45.748Z,15.02
2019-03-29T14:49:14.208Z,15.03
2019-03-29T14:51:42.667Z,15.03
2019-03-29T14:54:11.149Z,15.07
2019-03-29T14:56:41.770Z,15.09
2019-03-29T14:59:09.781Z,15.14
2019-03-29T15:01:38.298Z,15.17
2019-03-29T15:04:06.864Z,15.20
2019-03-29T15:06:35.318Z,15.24
2019-03-29T15:09:05.851Z,15.25
2019-03-29T15:11:38.998Z,15.26
2019-03-29T15:14:07.460Z,15.30
2019-03-29T15:16:35.944Z,15.33
2019-03-29T15:19:04.396Z,15.33
2019-03-29T15:21:32.848Z,15.37
2019-03-29T15:24:01.477Z,15.38
2019-03-29T15:26:30.071Z,15.37
2019-03-29T15:28:58.542Z,15.33
2019-03-29T15:31:27.031Z,15.30
2019-03-29T15:33:55.897Z,15.28
2019-03-29T15:36:24.456Z,15.28
2019-03-29T15:38:53.029Z,15.22
2019-03-29T15:41:21.489Z,15.20
2019-03-29T15:43:50.024Z,15.19
2019-03-29T15:46:18.519Z,15.17
2019-03-29T15:48:46.974Z,15.15
2019-03-29T15:51:15.446Z,15.12
2019-03-29T15:53:43.943Z,15.08
2019-03-29T15:56:12.393Z,15.06
2019-03-29T15:58:40.867Z,15.04
2019-03-29T16:01:09.427Z,15.01
2019-03-29T16:03:37.886Z,15.00
2019-03-29T16:06:06.714Z,14.99
2019-03-29T16:08:35.197Z,14.97
2019-03-29T16:11:03.669Z,15.01
2019-03-29T16:13:32.131Z,15.05
2019-03-29T16:16:00.634Z,15.08
2019-03-29T16:18:30.732Z,15.09
2019-03-29T16:20:59.201Z,15.08
2019-03-29T16:23:27.838Z,15.09
2019-03-29T16:25:56.297Z,15.09
2019-03-29T16:28:24.755Z,15.06
2019-03-29T16:30:53.280Z,15.02
2019-03-29T16:33:21.755Z,14.91
2019-03-29T16:35:50.225Z,14.81
2019-03-29T16:38:18.715Z,14.71
2019-03-29T16:40:47.186Z,14.63
2019-03-29T16:43:15.661Z,14.55
2019-03-29T16:45:48.060Z,14.49
2019-03-29T16:48:14.343Z,14.41
2019-03-29T16:50:42.810Z,14.33
2019-03-29T16:53:11.313Z,14.24
2019-03-29T16:55:39.781Z,14.17
2019-03-29T16:58:08.241Z,14.10
2019-03-29T17:00:36.757Z,14.04
2019-03-29T17:03:05.415Z,14.01
2019-03-29T17:05:33.951Z,14.02
2019-03-29T17:08:05.278Z,14.08
2019-03-29T17:10:33.064Z,14.17
2019-03-29T17:13:01.827Z,14.18
2019-03-29T17:15:30.335Z,14.16
2019-03-29T17:17:58.818Z,14.12
2019-03-29T17:20:27.276Z,14.05
2019-03-29T17:22:55.779Z,13.96
2019-03-29T17:25:24.236Z,13.84
2019-03-29T17:27:52.731Z,13.71
2019-03-29T17:30:24.476Z,13.59
2019-03-29T17:32:52.946Z,13.45
2019-03-29T17:35:21.408Z,13.33
2019-03-29T17:37:49.906Z,13.19
2019-03-29T17:40:18.444Z,13.08
2019-03-29T17:42:47.157Z,12.97
2019-03-29T17:45:15.694Z,12.87
2019-03-29T17:47:44.213Z,12.76
2019-03-29T17:50:12.746Z,12.67
2019-03-29T17:52:41.255Z,12.59
2019-03-29T17:55:09.800Z,12.50
2019-03-29T17:57:38.258Z,12.42
2019-03-29T18:00:08.521Z,12.35
2019-03-29T18:02:37.150Z,12.27
2019-03-29T18:05:06.983Z,12.20
2019-03-29T18:07:35.485Z,12.14
2019-03-29T18:10:06.654Z,12.07
2019-03-29T18:12:35.143Z,12.01
2019-03-29T18:15:08.512Z,11.96
2019-03-29T18:17:36.979Z,11.89
2019-03-29T18:20:07.364Z,11.82
2019-03-29T18:22:35.854Z,11.77
2019-03-29T18:25:06.116Z,11.73
2019-03-29T18:27:34.571Z,11.67
2019-03-29T18:30:04.753Z,11.62
2019-03-29T18:32:33.596Z,11.57
2019-03-29T18:35:02.076Z,11.53
2019-03-29T18:37:31.370Z,11.48
2019-03-29T18:39:59.840Z,11.44
2019-03-29T18:42:28.311Z,11.40
2019-03-29T18:44:56.817Z,11.36
2019-03-29T18:47:25.291Z,11.30
2019-03-29T18:49:53.776Z,11.26
2019-03-29T18:52:22.282Z,11.23
2019-03-29T18:54:50.788Z,11.18
2019-03-29T18:57:19.402Z,11.15
2019-03-29T18:59:48.144Z,11.13
2019-03-29T19:02:16.552Z,11.09
2019-03-29T19:04:45.016Z,11.05
2019-03-29T19:07:13.570Z,11.00
2019-03-29T19:09:42.046Z,10.97
2019-03-29T19:12:10.639Z,10.92
2019-03-29T19:14:41.598Z,10.87
2019-03-29T19:17:09.345Z,10.82
2019-03-29T19:19:37.967Z,10.78
2019-03-29T19:22:06.468Z,10.73
2019-03-29T19:24:34.938Z,10.68
2019-03-29T19:27:03.424Z,10.64
2019-03-29T19:29:31.929Z,10.60
2019-03-29T19:32:00.619Z,10.56
2019-03-29T19:34:29.086Z,10.52
2019-03-29T19:36:57.597Z,10.49
2019-03-29T19:39:26.058Z,10.46
2019-03-29T19:41:54.530Z,10.43
2019-03-29T19:44:23.038Z,10.39
2019-03-29T19:46:51.528Z,10.38
2019-03-29T19:49:19.995Z,10.35
2019-03-29T19:51:48.651Z,10.33
2019-03-29T19:54:17.189Z,10.30
2019-03-29T19:56:45.658Z,10.26
2019-03-29T19:59:14.239Z,10.23
2019-03-29T20:01:42.721Z,10.20
2019-03-29T20:04:11.205Z,10.17
2019-03-29T20:06:39.721Z,10.14
2019-03-29T20:09:09.937Z,10.13
2019-03-29T20:11:38.627Z,10.12
2019-03-29T20:14:07.358Z,10.09
2019-03-29T20:16:35.814Z,10.07
2019-03-29T20:19:04.285Z,10.04
2019-03-29T20:21:32.794Z,10.01
2019-03-29T20:24:01.257Z,10.00
2019-03-29T20:26:29.715Z,9.97
2019-03-29T20:28:58.222Z,9.93
2019-03-29T20:31:26.676Z,9.92
2019-03-29T20:33:55.132Z,9.90
2019-03-29T20:36:23.657Z,9.88
2019-03-29T20:38:52.097Z,9.87
2019-03-29T20:41:20.577Z,9.84
2019-03-29T20:43:49.103Z,9.83
2019-03-29T20:46:17.560Z,9.82
2019-03-29T20:48:46.060Z,9.80
2019-03-29T20:51:14.565Z,9.78
2019-03-29T20:53:43.739Z,9.77
2019-03-29T20:56:12.394Z,9.74
2019-03-29T20:58:40.993Z,9.72
2019-03-29T21:01:09.469Z,9.71
2019-03-29T21:03:37.937Z,9.70
2019-03-29T21:06:06.437Z,9.68
2019-03-29T21:08:34.905Z,9.66
2019-03-29T21:11:03.378Z,9.66
2019-03-29T21:13:31.917Z,9.65
2019-03-29T21:16:01.427Z,9.65
2019-03-29T21:18:29.887Z,9.62
2019-03-29T21:20:58.397Z,9.61
2019-03-29T21:23:26.827Z,9.59
2019-03-29T21:25:55.327Z,9.57
2019-03-29T21:28:23.791Z,9.53
2019-03-29T21:30:52.326Z,9.50
2019-03-29T21:33:20.846Z,9.47
2019-03-29T21:35:49.305Z,9.45
2019-03-29T21:38:17.760Z,9.44
2019-03-29T21:40:46.252Z,9.42
2019-03-29T21:43:14.782Z,9.40
2019-03-29T21:45:43.232Z,9.39
2019-03-29T21:48:27.973Z,9.38
2019-03-29T21:50:41.934Z,9.36
2019-03-29T21:53:10.395Z,9.34
2019-03-29T21:55:38.887Z,9.31
2019-03-29T21:58:07.357Z,9.29
2019-03-29T22:00:35.831Z,9.25
2019-03-29T22:03:04.312Z,9.22
2019-03-29T22:05:32.757Z,9.21
2019-03-29T22:08:01.233Z,9.01
2019-03-29T22:10:29.731Z,9.16
2019-03-29T22:12:58.262Z,9.13
2019-03-29T22:15:26.721Z,9.10
2019-03-29T22:17:55.549Z,9.07
2019-03-29T22:20:24.018Z,9.06
2019-03-29T22:22:52.555Z,9.04
2019-03-29T22:25:21.062Z,9.02
2019-03-29T22:27:49.524Z,9.00
2019-03-29T22:30:18.051Z,8.98
2019-03-29T22:32:46.543Z,8.96
2019-03-29T22:35:15.001Z,8.92
2019-03-29T22:37:43.461Z,8.89
2019-03-29T22:40:12.028Z,8.85
2019-03-29T22:42:40.488Z,8.80
2019-03-29T22:45:09.188Z,8.76
2019-03-29T22:47:37.707Z,8.72
2019-03-29T22:50:06.732Z,8.68
2019-03-29T22:52:35.207Z,8.66
2019-03-29T22:55:07.276Z,8.62
2019-03-29T22:57:35.740Z,8.59
2019-03-29T23:00:10.434Z,8.54
2019-03-29T23:02:38.941Z,8.52
2019-03-29T23:05:08.071Z,8.50
2019-03-29T23:07:36.544Z,8.49
2019-03-29T23:10:06.353Z,8.49
2019-03-29T23:12:34.779Z,8.47
2019-03-29T23:15:03.323Z,8.46
2019-03-29T23:17:31.799Z,8.43
2019-03-29T23:20:00.385Z,8.42
2019-03-29T23:22:28.844Z,8.41
2019-03-29T23:24:57.352Z,8.38
2019-03-29T23:27:25.821Z,8.34
2019-03-29T23:29:54.291Z,8.33
2019-03-29T23:32:22.791Z,8.30
2019-03-29T23:34:51.250Z,8.29
2019-03-29T23:37:19.712Z,8.26
2019-03-29T23:39:48.214Z,8.24
2019-03-29T23:42:16.686Z,8.19
2019-03-29T23:44:45.147Z,8.17
2019-03-29T23:47:13.660Z,8.13
2019-03-29T23:49:42.120Z,8.10
2019-03-29T23:52:10.594Z,8.09
2019-03-29T23:54:39.087Z,8.06
2019-03-29T23:57:07.559Z,8.04
2019-03-29T23:59:36.034Z,7.99
